Time;durP1;ratioP1;P1;durP2;ratioP2;P2;SDS_P1;SDS_P2;PMS_P1;PMS_P2;Temp;Humidity;BMP_temperature;BMP_pressure;BME280_temperature;BME280_humidity;BME280_pressure;Samples;Min_cycle;Max_cycle;Signal;HPM_P1;HPM_P2
2023/05/01 00:00:36;;;;;;;;;;;;;;;;;;4983971;28;20444;-63
2023/05/01 00:03:02;;;;;;;;;;;;;;;;;;4984697;28;19969;-64
2023/05/01 00:05:28;;;;;;;;;;;;;;;;;;4985284;28;19968;-64
2023/05/01 00:07:54;;;;;;;;;;;;;;;;;;4984438;28;20406;-64
2023/05/01 00:10:20;;;;;;;;;;;;;;;;;;4984946;28;19930;-64
2023/05/01 00:12:46;;;;;;;;;;;;;;;;;;4984694;28;19922;-64
2023/05/01 00:15:12;;;;;;;;;;;;;;;;;;4983861;28;19992;-64
2023/05/01 00:17:38;;;;;;;;;;;;;;;;;;4984270;28;19922;-63
2023/05/01 00:20:04;;;;;;;;;;;;;;;;;;4984600;28;20571;-64
2023/05/01 00:22:30;;;;;;;;;;;;;;;;;;4984900;28;19994;-64
2023/05/01 00:24:56;;;;;;;;;;;;;;;;;;4984917;28;20394;-64
2023/05/01 00:27:22;;;;;;;;;;;;;;;;;;4984852;28;19922;-63
2023/05/01 00:29:48;;;;;;;;;;;;;;;;;;4966202;28;20439;-63
2023/05/01 00:32:14;;;;;;;;;;;;;;;;;;4984608;28;19925;-63
2023/05/01 00:34:40;;;;;;;;;;;;;;;;;;4971026;28;19987;-63
2023/05/01 00:37:06;;;;;;;;;;;;;;;;;;4984883;28;19929;-62
2023/05/01 00:39:32;;;;;;;;;;;;;;;;;;4984321;28;20375;-62
2023/05/01 00:41:58;;;;;;;;;;;;;;;;;;4984243;28;19925;-63
2023/05/01 00:44:24;;;;;;;;;;;;;;;;;;4963049;28;19933;-63
2023/05/01 00:46:50;;;;;;;;;;;;;;;;;;4983317;28;20394;-63
2023/05/01 00:49:16;;;;;;;;;;;;;;;;;;4984728;28;20382;-63
2023/05/01 00:51:43;;;;;;;;;;;;;;;;;;4984256;28;19922;-62
2023/05/01 00:54:09;;;;;;;;;;;;;;;;;;4984566;28;19921;-63
2023/05/01 00:56:35;;;;;;;;;;;;;;;;;;4983996;28;19928;-63
2023/05/01 00:59:01;;;;;;;;;;;;;;;;;;4983768;28;19937;-63
2023/05/01 01:01:28;;;;;;;;;;;;;;;;;;4984453;28;20295;-64
2023/05/01 01:03:54;;;;;;;;;;;;;;;;;;4984085;28;19921;-66
2023/05/01 01:06:20;;;;;;;;;;;;;;;;;;4963628;28;19922;-63
2023/05/01 01:08:46;;;;;;;;;;;;;;;;;;4964702;28;20018;-63
2023/05/01 01:11:12;;;;;;;;;;;;;;;;;;4964925;28;20382;-63
2023/05/01 01:13:38;;;;;;;;;;;;;;;;;;4963521;28;20016;-63
2023/05/01 01:16:04;;;;;;;;;;;;;;;;;;4968441;28;20279;-63
2023/05/01 01:18:31;;;;;;;;;;;;;;;;;;4969350;28;19961;-63
2023/05/01 01:20:57;;;;;;;;;;;;;;;;;;4968140;28;19977;-62
2023/05/01 01:23:23;;;;;;;;;;;;;;;;;;4968680;28;19922;-63
2023/05/01 01:25:49;;;;;;;;;;;;;;;;;;4968333;28;19928;-63
2023/05/01 01:28:15;;;;;;;;;;;;;;;;;;4967649;28;19929;-63
2023/05/01 01:30:41;;;;;;;;;;;;;;;;;;4968249;28;19930;-63
2023/05/01 01:33:08;;;;;;;;;;;;;;;;;;4965069;28;19922;-63
2023/05/01 01:35:34;;;;;;;;;;;;;;;;;;4958633;28;19992;-63
2023/05/01 01:38:00;;;;;;;;;;;;;;;;;;4968560;28;20240;-63
2023/05/01 01:40:26;;;;;;;;;;;;;;;;;;4968081;28;19929;-63
2023/05/01 01:42:52;;;;;;;;;;;;;;;;;;4966983;28;19926;-63
2023/05/01 01:45:18;;;;;;;;;;;;;;;;;;4968342;28;20579;-63
2023/05/01 01:47:44;;;;;;;;;;;;;;;;;;4967827;28;20277;-63
2023/05/01 01:50:10;;;;;;;;;;;;;;;;;;4968129;28;19922;-63
2023/05/01 01:52:36;;;;;;;;;;;;;;;;;;4967975;28;19930;-63
2023/05/01 01:55:04;;;;;;;;;;;;;;;;;;4960856;28;19953;-63
2023/05/01 01:57:30;;;;;;;;;;;;;;;;;;4954539;28;19922;-63
2023/05/01 01:59:56;;;;;;;;;;;;;;;;;;4950902;28;19926;-63
2023/05/01 02:02:22;;;;;;;;;;;;;;;;;;4959885;28;20558;-63
2023/05/01 02:04:47;;;;;;;;;;;;;;;;;;4957286;28;20009;-63
2023/05/01 02:07:13;;;;;;;;;;;;;;;;;;4977994;28;19922;-63
2023/05/01 02:09:40;;;;;;;;;;;;;;;;;;4987031;28;19921;-63
2023/05/01 02:12:06;;;;;;;;;;;;;;;;;;4986438;28;19957;-62
2023/05/01 02:14:32;;;;;;;;;;;;;;;;;;4955914;28;20383;-63
2023/05/01 02:16:58;;;;;;;;;;;;;;;;;;4986792;28;20020;-63
2023/05/01 02:19:25;;;;;;;;;;;;;;;;;;4987094;28;20299;-63
2023/05/01 02:21:51;;;;;;;;;;;;;;;;;;4986311;28;19925;-63
2023/05/01 02:24:17;;;;;;;;;;;;;;;;;;4986769;28;19937;-63
2023/05/01 02:26:43;;;;;;;;;;;;;;;;;;4986041;28;20287;-63
2023/05/01 02:29:09;;;;;;;;;;;;;;;;;;4985796;28;19922;-63
2023/05/01 02:31:35;;;;;;;;;;;;;;;;;;4973506;28;19928;-63
2023/05/01 02:34:01;;;;;;;;;;;;;;;;;;4986918;28;19991;-63
2023/05/01 02:36:27;;;;;;;;;;;;;;;;;;4987105;28;20372;-63
2023/05/01 02:38:53;;;;;;;;;;;;;;;;;;4986577;28;20001;-63
2023/05/01 02:41:20;;;;;;;;;;;;;;;;;;4985902;28;20012;-63
2023/05/01 02:43:46;;;;;;;;;;;;;;;;;;4985624;28;20020;-63
2023/05/01 02:46:12;;;;;;;;;;;;;;;;;;4986378;28;19926;-63
2023/05/01 02:48:38;;;;;;;;;;;;;;;;;;4986654;28;19922;-63
2023/05/01 02:51:04;;;;;;;;;;;;;;;;;;4986252;28;19928;-63
2023/05/01 02:53:30;;;;;;;;;;;;;;;;;;4965686;28;20299;-62
2023/05/01 02:55:56;;;;;;;;;;;;;;;;;;4977877;28;19922;-63
2023/05/01 02:58:22;;;;;;;;;;;;;;;;;;4985650;28;19932;-63
2023/05/01 03:00:48;;;;;;;;;;;;;;;;;;4985827;28;20387;-62
2023/05/01 03:03:15;;;;;;;;;;;;;;;;;;4985744;28;19929;-63
2023/05/01 03:05:41;;;;;;;;;;;;;;;;;;4951652;28;20455;-63
2023/05/01 03:08:07;;;;;;;;;;;;;;;;;;4978918;28;20016;-62
2023/05/01 03:10:33;;;;;;;;;;;;;;;;;;4986109;28;20016;-62
2023/05/01 03:12:59;;;;;;;;;;;;;;;;;;4985669;28;20016;-62
2023/05/01 03:15:25;;;;;;;;;;;;;;;;;;4985806;28;20359;-62
2023/05/01 03:17:51;;;;;;;;;;;;;;;;;;4964823;28;19930;-63
2023/05/01 03:20:17;;;;;;;;;;;;;;;;;;4980374;28;19997;-64
2023/05/01 03:22:43;;;;;;;;;;;;;;;;;;4985192;28;20389;-63
2023/05/01 03:25:09;;;;;;;;;;;;;;;;;;4986034;28;19921;-63
2023/05/01 03:27:35;;;;;;;;;;;;;;;;;;4984851;28;20459;-63
2023/05/01 03:30:01;;;;;;;;;;;;;;;;;;4985825;28;20000;-63
2023/05/01 03:32:28;;;;;;;;;;;;;;;;;;4985906;28;19940;-63
2023/05/01 03:34:54;;;;;;;;;;;;;;;;;;4985362;28;19925;-63
2023/05/01 03:37:20;;;;;;;;;;;;;;;;;;4964685;28;20384;-63
2023/05/01 03:39:46;;;;;;;;;;;;;;;;;;4984884;28;19995;-63
2023/05/01 03:42:12;;;;;;;;;;;;;;;;;;4985125;28;19926;-62
2023/05/01 03:44:38;;;;;;;;;;;;;;;;;;4984535;28;19922;-63
2023/05/01 03:47:04;;;;;;;;;;;;;;;;;;4985746;28;20002;-62
2023/05/01 03:49:30;;;;;;;;;;;;;;;;;;4985786;28;19970;-65
2023/05/01 03:51:56;;;;;;;;;;;;;;;;;;4985373;28;20456;-63
2023/05/01 03:54:23;;;;;;;;;;;;;;;;;;4985222;28;20004;-63
2023/05/01 03:56:49;;;;;;;;;;;;;;;;;;4983954;28;19921;-63
2023/05/01 03:59:15;;;;;;;;;;;;;;;;;;4984351;28;19921;-63
2023/05/01 04:01:41;;;;;;;;;;;;;;;;;;4977509;28;19926;-63
2023/05/01 04:04:07;;;;;;;;;;;;;;;;;;4965581;28;20376;-63
2023/05/01 04:06:33;;;;;;;;;;;;;;;;;;4973030;28;19961;-63
2023/05/01 04:09:00;;;;;;;;;;;;;;;;;;4985065;28;19965;-63
2023/05/01 04:11:26;;;;;;;;;;;;;;;;;;4985237;28;20638;-64
2023/05/01 04:13:52;;;;;;;;;;;;;;;;;;4983906;28;20446;-63
2023/05/01 04:16:18;;;;;;;;;;;;;;;;;;4984418;28;19921;-63
2023/05/01 04:18:44;;;;;;;;;;;;;;;;;;4969140;28;19926;-63
2023/05/01 04:21:10;;;;;;;;;;;;;;;;;;4947105;28;20478;-62
2023/05/01 04:23:36;;;;;;;;;;;;;;;;;;4965457;28;19922;-62
2023/05/01 04:26:02;;;;;;;;;;;;;;;;;;4965558;28;19922;-61
2023/05/01 04:28:29;;;;;;;;;;;;;;;;;;4965154;28;20000;-61
2023/05/01 04:30:56;;;;;;;;;;;;;;;;;;4964979;28;19926;-61
2023/05/01 04:33:22;;;;;;;;;;;;;;;;;;4965132;28;19957;-61
2023/05/01 04:35:48;;;;;;;;;;;;;;;;;;4964705;28;19926;-63
2023/05/01 04:38:14;;;;;;;;;;;;;;;;;;4964940;28;19928;-63
2023/05/01 04:40:41;;;;;;;;;;;;;;;;;;4964387;28;19926;-63
2023/05/01 04:43:06;;;;;;;;;;;;;;;;;;4964408;28;19929;-64
2023/05/01 04:45:32;;;;;;;;;;;;;;;;;;4965044;28;19926;-63
2023/05/01 04:47:58;;;;;;;;;;;;;;;;;;4965264;28;19922;-63
2023/05/01 04:50:25;;;;;;;;;;;;;;;;;;4964344;28;19922;-63
2023/05/01 04:52:52;;;;;;;;;;;;;;;;;;4964832;28;19926;-63
2023/05/01 04:55:18;;;;;;;;;;;;;;;;;;4964958;28;19925;-63
2023/05/01 04:57:44;;;;;;;;;;;;;;;;;;4964121;28;19922;-63
2023/05/01 05:00:10;;;;;;;;;;;;;;;;;;4964579;28;20302;-62
2023/05/01 05:02:36;;;;;;;;;;;;;;;;;;4964744;28;19929;-62
2023/05/01 05:05:02;;;;;;;;;;;;;;;;;;4966004;28;20423;-62
2023/05/01 05:07:28;;;;;;;;;;;;;;;;;;4984864;28;19975;-62
2023/05/01 05:09:53;;;;;;;;;;;;;;;;;;4984172;28;19921;-63
2023/05/01 05:12:19;;;;;;;;;;;;;;;;;;4983582;28;19924;-63
2023/05/01 05:14:46;;;;;;;;;;;;;;;;;;4984162;28;19996;-63
2023/05/01 05:17:12;;;;;;;;;;;;;;;;;;4983881;28;19922;-63
2023/05/01 05:19:38;;;;;;;;;;;;;;;;;;4983987;28;19926;-64
2023/05/01 05:22:04;;;;;;;;;;;;;;;;;;4984111;28;19921;-63
2023/05/01 05:24:31;;;;;;;;;;;;;;;;;;4964022;28;19933;-63
2023/05/01 05:26:57;;;;;;;;;;;;;;;;;;4978324;28;19922;-64
2023/05/01 05:29:23;;;;;;;;;;;;;;;;;;4983580;28;20370;-63
2023/05/01 05:31:49;;;;;;;;;;;;;;;;;;4984379;28;19965;-64
2023/05/01 05:34:15;;;;;;;;;;;;;;;;;;4984348;28;20295;-64
2023/05/01 05:36:41;;;;;;;;;;;;;;;;;;4984069;28;19933;-64
2023/05/01 05:39:07;;;;;;;;;;;;;;;;;;4983876;28;20288;-63
2023/05/01 05:41:33;;;;;;;;;;;;;;;;;;4962909;28;19968;-64
2023/05/01 05:43:59;;;;;;;;;;;;;;;;;;4976812;28;19976;-63
2023/05/01 05:46:25;;;;;;;;;;;;;;;;;;4966713;28;19969;-63
2023/05/01 05:48:51;;;;;;;;;;;;;;;;;;4974960;28;19976;-63
2023/05/01 05:51:18;;;;;;;;;;;;;;;;;;4984111;28;20424;-63
2023/05/01 05:53:44;;;;;;;;;;;;;;;;;;4983896;28;20275;-63
2023/05/01 05:56:10;;;;;;;;;;;;;;;;;;4984033;28;20355;-64
2023/05/01 05:58:36;;;;;;;;;;;;;;;;;;4982958;28;20295;-63
2023/05/01 06:01:02;;;;;;;;;;;;;;;;;;4978730;28;19929;-63
2023/05/01 06:03:28;;;;;;;;;;;;;;;;;;4985157;28;20368;-63
2023/05/01 06:05:54;;;;;;;;;;;;;;;;;;4971784;28;19993;-63
2023/05/01 06:08:21;;;;;;;;;;;;;;;;;;4972669;28;20004;-61
2023/05/01 06:10:47;;;;;;;;;;;;;;;;;;4971309;28;19929;-64
2023/05/01 06:13:13;;;;;;;;;;;;;;;;;;4980167;28;19925;-65
2023/05/01 06:15:39;;;;;;;;;;;;;;;;;;4973946;28;19921;-64
2023/05/01 06:18:06;;;;;;;;;;;;;;;;;;4974025;28;19977;-64
2023/05/01 06:20:32;;;;;;;;;;;;;;;;;;4968131;28;19922;-64
2023/05/01 06:22:58;;;;;;;;;;;;;;;;;;4973975;28;19924;-64
2023/05/01 06:25:24;;;;;;;;;;;;;;;;;;4967722;28;19930;-64
2023/05/01 06:27:50;;;;;;;;;;;;;;;;;;4973634;28;19926;-63
2023/05/01 06:30:18;;;;;;;;;;;;;;;;;;4969647;28;19922;-65
2023/05/01 06:32:44;;;;;;;;;;;;;;;;;;4968220;28;19925;-64
2023/05/01 06:35:10;;;;;;;;;;;;;;;;;;4976495;28;19929;-66
2023/05/01 06:37:37;;;;;;;;;;;;;;;;;;4967182;28;20368;-65
2023/05/01 06:40:03;;;;;;;;;;;;;;;;;;4968292;28;19922;-63
2023/05/01 06:42:29;;;;;;;;;;;;;;;;;;4967333;28;20008;-63
2023/05/01 06:44:55;;;;;;;;;;;;;;;;;;4968486;28;19930;-63
2023/05/01 06:47:21;;;;;;;;;;;;;;;;;;4974490;28;20392;-63
2023/05/01 06:49:47;;;;;;;;;;;;;;;;;;4967676;28;19922;-64
2023/05/01 06:52:13;;;;;;;;;;;;;;;;;;4971784;28;19922;-66
2023/05/01 06:54:40;;;;;;;;;;;;;;;;;;4977590;28;20296;-66
2023/05/01 06:57:06;;;;;;;;;;;;;;;;;;4966340;28;19922;-67
2023/05/01 06:59:32;;;;;;;;;;;;;;;;;;4949408;28;19926;-69
2023/05/01 07:01:58;;;;;;;;;;;;;;;;;;4952604;28;19925;-67
2023/05/01 07:04:24;;;;;;;;;;;;;;;;;;4977337;28;19922;-67
2023/05/01 07:06:50;;;;;;;;;;;;;;;;;;4981482;28;20075;-66
2023/05/01 07:09:16;;;;;;;;;;;;;;;;;;4986110;28;19922;-67
2023/05/01 07:11:42;;;;;;;;;;;;;;;;;;4985682;28;19944;-68
2023/05/01 07:14:08;;;;;;;;;;;;;;;;;;4984782;28;19999;-67
2023/05/01 07:16:34;;;;;;;;;;;;;;;;;;4983689;28;20355;-67
2023/05/01 07:19:00;;;;;;;;;;;;;;;;;;4967108;28;19926;-65
2023/05/01 07:21:26;;;;;;;;;;;;;;;;;;4979479;28;19933;-65
2023/05/01 07:23:52;;;;;;;;;;;;;;;;;;4983571;28;19945;-65
2023/05/01 07:26:18;;;;;;;;;;;;;;;;;;4983748;28;20784;-66
2023/05/01 07:28:44;;;;;;;;;;;;;;;;;;4982203;28;19949;-65
2023/05/01 07:31:10;;;;;;;;;;;;;;;;;;4983868;28;20375;-66
2023/05/01 07:33:36;;;;;;;;;;;;;;;;;;4982822;28;19937;-66
2023/05/01 07:36:03;;;;;;;;;;;;;;;;;;4983871;28;19929;-66
2023/05/01 07:38:29;;;;;;;;;;;;;;;;;;4983660;28;19925;-65
2023/05/01 07:40:55;;;;;;;;;;;;;;;;;;4982617;28;19971;-66
2023/05/01 07:43:21;;;;;;;;;;;;;;;;;;4982949;28;19933;-66
2023/05/01 07:45:47;;;;;;;;;;;;;;;;;;4983036;28;19926;-66
2023/05/01 07:48:14;;;;;;;;;;;;;;;;;;4983559;28;19926;-66
2023/05/01 07:50:40;;;;;;;;;;;;;;;;;;4982764;28;20299;-66
2023/05/01 07:53:06;;;;;;;;;;;;;;;;;;4982426;28;19926;-66
2023/05/01 07:55:32;;;;;;;;;;;;;;;;;;4982627;28;19933;-66
2023/05/01 07:57:58;;;;;;;;;;;;;;;;;;4982877;28;20678;-66
2023/05/01 08:00:24;;;;;;;;;;;;;;;;;;4983294;28;19929;-65
2023/05/01 08:02:50;;;;;;;;;;;;;;;;;;4982777;28;19925;-65
2023/05/01 08:05:16;;;;;;;;;;;;;;;;;;4969085;28;20052;-65
2023/05/01 08:07:42;;;;;;;;;;;;;;;;;;4982566;28;20379;-66
2023/05/01 08:10:08;;;;;;;;;;;;;;;;;;4982912;28;19925;-65
2023/05/01 08:12:34;;;;;;;;;;;;;;;;;;4982183;28;19925;-65
2023/05/01 08:15:00;;;;;;;;;;;;;;;;;;4982550;28;20394;-66
2023/05/01 08:17:26;;;;;;;;;;;;;;;;;;4982634;28;20582;-66
2023/05/01 08:19:55;;;;;;;;;;;;;;;;;;4983015;28;19968;-65
2023/05/01 08:22:21;;;;;;;;;;;;;;;;;;4982895;28;20182;-65
2023/05/01 08:24:47;;;;;;;;;;;;;;;;;;4981788;28;19934;-65
2023/05/01 08:27:13;;;;;;;;;;;;;;;;;;4982264;28;20004;-65
2023/05/01 08:29:39;;;;;;;;;;;;;;;;;;4982444;28;20051;-65
2023/05/01 08:32:05;;;;;;;;;;;;;;;;;;4982733;28;19930;-65
2023/05/01 08:34:31;;;;;;;;;;;;;;;;;;4981889;28;19925;-63
2023/05/01 08:36:57;;;;;;;;;;;;;;;;;;4982390;28;19925;-65
2023/05/01 08:39:23;;;;;;;;;;;;;;;;;;4982074;28;19925;-65
2023/05/01 08:41:49;;;;;;;;;;;;;;;;;;4981476;28;20008;-65
2023/05/01 08:44:15;;;;;;;;;;;;;;;;;;4982744;28;20020;-65
2023/05/01 08:46:41;;;;;;;;;;;;;;;;;;4982611;28;19925;-65
2023/05/01 08:49:07;;;;;;;;;;;;;;;;;;4982580;28;19980;-65
2023/05/01 08:51:33;;;;;;;;;;;;;;;;;;4982238;28;20355;-65
2023/05/01 08:53:59;;;;;;;;;;;;;;;;;;4981597;28;19929;-65
2023/05/01 08:56:25;;;;;;;;;;;;;;;;;;4982340;28;19926;-65
2023/05/01 08:58:51;;;;;;;;;;;;;;;;;;4980045;28;20699;-64
2023/05/01 09:01:17;;;;;;;;;;;;;;;;;;4965096;28;19973;-65
2023/05/01 09:03:43;;;;;;;;;;;;;;;;;;4962464;28;20008;-64
2023/05/01 09:06:09;;;;;;;;;;;;;;;;;;4972729;28;19969;-66
2023/05/01 09:08:36;;;;;;;;;;;;;;;;;;4965137;28;20327;-64
2023/05/01 09:11:02;;;;;;;;;;;;;;;;;;4971055;28;20851;-65
2023/05/01 09:13:28;;;;;;;;;;;;;;;;;;4968426;28;19922;-65
2023/05/01 09:15:54;;;;;;;;;;;;;;;;;;4962579;28;20724;-65
2023/05/01 09:18:20;;;;;;;;;;;;;;;;;;4962335;28;19922;-65
2023/05/01 09:20:46;;;;;;;;;;;;;;;;;;4967171;28;19928;-65
2023/05/01 09:23:12;;;;;;;;;;;;;;;;;;4964990;28;20013;-67
2023/05/01 09:25:38;;;;;;;;;;;;;;;;;;4963215;28;19922;-67
2023/05/01 09:28:05;;;;;;;;;;;;;;;;;;4962133;28;19928;-65
2023/05/01 09:30:31;;;;;;;;;;;;;;;;;;4945295;28;20753;-63
2023/05/01 09:32:57;;;;;;;;;;;;;;;;;;4971497;28;20446;-65
2023/05/01 09:35:23;;;;;;;;;;;;;;;;;;4966551;28;19922;-65
2023/05/01 09:37:50;;;;;;;;;;;;;;;;;;4967593;28;19922;-65
2023/05/01 09:40:16;;;;;;;;;;;;;;;;;;4983017;28;19928;-65
2023/05/01 09:42:42;;;;;;;;;;;;;;;;;;4975339;28;19926;-63
2023/05/01 09:45:08;;;;;;;;;;;;;;;;;;4974782;28;19928;-66
2023/05/01 09:47:34;;;;;;;;;;;;;;;;;;4975348;28;19922;-65
2023/05/01 09:50:00;;;;;;;;;;;;;;;;;;4971682;28;19925;-64
2023/05/01 09:52:26;;;;;;;;;;;;;;;;;;4961588;28;20299;-65
2023/05/01 09:54:53;;;;;;;;;;;;;;;;;;4983637;28;19933;-64
2023/05/01 09:57:19;;;;;;;;;;;;;;;;;;4980314;28;19922;-64
2023/05/01 09:59:45;;;;;;;;;;;;;;;;;;4979420;28;19921;-64
2023/05/01 10:02:11;;;;;;;;;;;;;;;;;;4978849;28;20016;-64
2023/05/01 10:04:38;;;;;;;;;;;;;;;;;;4968731;28;20371;-64
2023/05/01 10:07:04;;;;;;;;;;;;;;;;;;4981201;28;19921;-64
2023/05/01 10:09:31;;;;;;;;;;;;;;;;;;4984048;28;19928;-64
2023/05/01 10:11:57;;;;;;;;;;;;;;;;;;4981416;28;20389;-63
2023/05/01 10:14:25;;;;;;;;;;;;;;;;;;4980881;28;19928;-63
2023/05/01 10:16:51;;;;;;;;;;;;;;;;;;4966918;28;19926;-63
2023/05/01 10:19:17;;;;;;;;;;;;;;;;;;4967998;28;19922;-63
2023/05/01 10:21:43;;;;;;;;;;;;;;;;;;4967046;28;19929;-63
2023/05/01 10:24:09;;;;;;;;;;;;;;;;;;4967214;28;19922;-63
2023/05/01 10:26:35;;;;;;;;;;;;;;;;;;4966673;28;19977;-64
2023/05/01 10:29:02;;;;;;;;;;;;;;;;;;4967503;28;19926;-65
2023/05/01 10:31:28;;;;;;;;;;;;;;;;;;4968127;28;19922;-65
2023/05/01 10:33:54;;;;;;;;;;;;;;;;;;4967231;28;19929;-67
2023/05/01 10:36:21;;;;;;;;;;;;;;;;;;4967417;28;19929;-65
2023/05/01 10:38:48;;;;;;;;;;;;;;;;;;4966455;28;19929;-66
2023/05/01 10:41:14;;;;;;;;;;;;;;;;;;4975929;28;20650;-66
2023/05/01 10:43:41;;;;;;;;;;;;;;;;;;4966191;28;20084;-66
2023/05/01 10:46:08;;;;;;;;;;;;;;;;;;4967160;28;19921;-65
2023/05/01 10:48:35;;;;;;;;;;;;;;;;;;4966515;28;20352;-65
2023/05/01 10:51:01;;;;;;;;;;;;;;;;;;4967468;28;19933;-65
2023/05/01 10:53:27;;;;;;;;;;;;;;;;;;4967710;28;19922;-64
2023/05/01 10:55:54;;;;;;;;;;;;;;;;;;4966861;28;20380;-64
2023/05/01 10:58:20;;;;;;;;;;;;;;;;;;4966510;28;19922;-62
2023/05/01 11:00:46;;;;;;;;;;;;;;;;;;4966226;28;20295;-63
2023/05/01 11:03:12;;;;;;;;;;;;;;;;;;4966747;28;20299;-63
2023/05/01 11:05:38;;;;;;;;;;;;;;;;;;4972079;28;19921;-62
2023/05/01 11:08:04;;;;;;;;;;;;;;;;;;4986598;28;20063;-62
2023/05/01 11:10:30;;;;;;;;;;;;;;;;;;4986679;28;20303;-62
2023/05/01 11:12:56;;;;;;;;;;;;;;;;;;4985886;28;20502;-62
2023/05/01 11:15:22;;;;;;;;;;;;;;;;;;4974525;28;20497;-62
2023/05/01 11:17:48;;;;;;;;;;;;;;;;;;4969733;28;20005;-62
2023/05/01 11:20:14;;;;;;;;;;;;;;;;;;4985878;28;19933;-63
2023/05/01 11:22:40;;;;;;;;;;;;;;;;;;4985734;28;19930;-64
2023/05/01 11:25:06;;;;;;;;;;;;;;;;;;4985879;28;19934;-63
2023/05/01 11:27:32;;;;;;;;;;;;;;;;;;4985297;28;20012;-63
2023/05/01 11:29:58;;;;;;;;;;;;;;;;;;4965105;28;20403;-63
2023/05/01 11:32:26;;;;;;;;;;;;;;;;;;4976047;28;19983;-63
2023/05/01 11:34:52;;;;;;;;;;;;;;;;;;4985695;28;19929;-64
2023/05/01 11:37:18;;;;;;;;;;;;;;;;;;4985892;28;19922;-64
2023/05/01 11:39:44;;;;;;;;;;;;;;;;;;4984933;28;19968;-63
2023/05/01 11:42:10;;;;;;;;;;;;;;;;;;4984906;28;20004;-63
2023/05/01 11:44:36;;;;;;;;;;;;;;;;;;4964765;28;20288;-63
2023/05/01 11:47:02;;;;;;;;;;;;;;;;;;4983928;28;19926;-63
2023/05/01 11:49:28;;;;;;;;;;;;;;;;;;4986353;28;20242;-63
2023/05/01 11:51:54;;;;;;;;;;;;;;;;;;4985224;28;19922;-63
2023/05/01 11:54:20;;;;;;;;;;;;;;;;;;4985941;28;19921;-63
2023/05/01 11:56:46;;;;;;;;;;;;;;;;;;4984201;28;19930;-63
2023/05/01 11:59:12;;;;;;;;;;;;;;;;;;4984251;28;19925;-63
2023/05/01 12:01:38;;;;;;;;;;;;;;;;;;4984955;28;20265;-63
2023/05/01 12:04:04;;;;;;;;;;;;;;;;;;4978650;28;19922;-63
2023/05/01 12:06:30;;;;;;;;;;;;;;;;;;4978833;28;19976;-63
2023/05/01 12:08:56;;;;;;;;;;;;;;;;;;4985232;28;19921;-67
2023/05/01 12:11:22;;;;;;;;;;;;;;;;;;4984713;28;20383;-65
2023/05/01 12:13:49;;;;;;;;;;;;;;;;;;4985035;28;20327;-62
2023/05/01 12:16:15;;;;;;;;;;;;;;;;;;4984880;28;19933;-62
2023/05/01 12:18:41;;;;;;;;;;;;;;;;;;4984400;28;19930;-62
2023/05/01 12:21:08;;;;;;;;;;;;;;;;;;4984939;28;19921;-62
2023/05/01 12:23:36;;;;;;;;;;;;;;;;;;4985172;28;19928;-62
2023/05/01 12:26:02;;;;;;;;;;;;;;;;;;4984891;28;19917;-63
2023/05/01 12:28:28;;;;;;;;;;;;;;;;;;4985044;28;19921;-63
2023/05/01 12:30:56;;;;;;;;;;;;;;;;;;4984686;28;19918;-62
2023/05/01 12:33:22;;;;;;;;;;;;;;;;;;4965636;28;19921;-63
2023/05/01 12:35:48;;;;;;;;;;;;;;;;;;4974814;28;19983;-63
2023/05/01 12:38:14;;;;;;;;;;;;;;;;;;4984030;28;19928;-63
2023/05/01 12:40:40;;;;;;;;;;;;;;;;;;4984982;28;19925;-63
2023/05/01 12:43:06;;;;;;;;;;;;;;;;;;4983754;28;19968;-65
2023/05/01 12:45:32;;;;;;;;;;;;;;;;;;4984958;28;19926;-63
2023/05/01 12:47:58;;;;;;;;;;;;;;;;;;4985045;28;19926;-63
2023/05/01 12:50:24;;;;;;;;;;;;;;;;;;4984607;28;20374;-63
2023/05/01 12:52:50;;;;;;;;;;;;;;;;;;4984298;28;19932;-63
2023/05/01 12:55:16;;;;;;;;;;;;;;;;;;4984719;28;19937;-63
2023/05/01 12:57:42;;;;;;;;;;;;;;;;;;4983227;28;20566;-63
2023/05/01 13:00:09;;;;;;;;;;;;;;;;;;4984876;28;19922;-63
2023/05/01 13:02:35;;;;;;;;;;;;;;;;;;4984340;28;20009;-63
2023/05/01 13:05:01;;;;;;;;;;;;;;;;;;4970873;28;19980;-63
2023/05/01 13:07:27;;;;;;;;;;;;;;;;;;4984709;28;20091;-62
2023/05/01 13:09:53;;;;;;;;;;;;;;;;;;4984572;28;20402;-63
2023/05/01 13:12:19;;;;;;;;;;;;;;;;;;4987703;28;20000;-63
2023/05/01 13:14:46;;;;;;;;;;;;;;;;;;4966803;28;19928;-64
2023/05/01 13:17:12;;;;;;;;;;;;;;;;;;4959305;28;20490;-62
2023/05/01 13:19:38;;;;;;;;;;;;;;;;;;4981486;28;20013;-64
2023/05/01 13:22:04;;;;;;;;;;;;;;;;;;4972324;28;19926;-64
2023/05/01 13:24:30;;;;;;;;;;;;;;;;;;4969742;28;19922;-64
2023/05/01 13:27:02;;;;;;;;;;;;;;;;;;4982968;28;19944;-64
2023/05/01 13:29:29;;;;;;;;;;;;;;;;;;4969345;28;19929;-64
2023/05/01 13:31:55;;;;;;;;;;;;;;;;;;4968197;28;20013;-65
2023/05/01 13:34:21;;;;;;;;;;;;;;;;;;4968549;28;20514;-64
2023/05/01 13:36:47;;;;;;;;;;;;;;;;;;4968219;28;19929;-64
2023/05/01 13:39:13;;;;;;;;;;;;;;;;;;4967949;28;19926;-65
2023/05/01 13:41:39;;;;;;;;;;;;;;;;;;4967385;28;19928;-65
2023/05/01 13:44:05;;;;;;;;;;;;;;;;;;4968437;28;19940;-64
2023/05/01 13:46:31;;;;;;;;;;;;;;;;;;4968461;28;20355;-64
2023/05/01 13:48:57;;;;;;;;;;;;;;;;;;4968298;28;19928;-65
2023/05/01 13:51:23;;;;;;;;;;;;;;;;;;4951292;28;19926;-65
2023/05/01 13:53:51;;;;;;;;;;;;;;;;;;4967718;28;20321;-65
2023/05/01 13:56:17;;;;;;;;;;;;;;;;;;4967618;28;20005;-65
2023/05/01 13:58:47;;;;;;;;;;;;;;;;;;4967296;28;19926;-65
2023/05/01 14:01:17;;;;;;;;;;;;;;;;;;4968181;28;19989;-66
2023/05/01 14:03:43;;;;;;;;;;;;;;;;;;4967629;28;19929;-65
2023/05/01 14:06:09;;;;;;;;;;;;;;;;;;4977753;28;20388;-66
2023/05/01 14:08:35;;;;;;;;;;;;;;;;;;4986783;28;19929;-64
2023/05/01 14:11:01;;;;;;;;;;;;;;;;;;4986814;28;19926;-64
2023/05/01 14:13:27;;;;;;;;;;;;;;;;;;4987916;28;19929;-64
2023/05/01 14:15:53;;;;;;;;;;;;;;;;;;4986683;28;19933;-65
2023/05/01 14:18:20;;;;;;;;;;;;;;;;;;4981023;28;19922;-64
2023/05/01 14:20:46;;;;;;;;;;;;;;;;;;4973845;28;20291;-64
2023/05/01 14:23:13;;;;;;;;;;;;;;;;;;4976907;28;19928;-64
2023/05/01 14:25:39;;;;;;;;;;;;;;;;;;4981811;28;19918;-64
2023/05/01 14:28:06;;;;;;;;;;;;;;;;;;4963045;28;20333;-65
2023/05/01 14:30:32;;;;;;;;;;;;;;;;;;4982364;28;20012;-64
2023/05/01 14:32:58;;;;;;;;;;;;;;;;;;4976223;28;20422;-65
2023/05/01 14:35:24;;;;;;;;;;;;;;;;;;4973974;28;20032;-64
2023/05/01 14:37:50;;;;;;;;;;;;;;;;;;4985713;28;19922;-64
2023/05/01 14:40:16;;;;;;;;;;;;;;;;;;4974639;28;19929;-64
2023/05/01 14:42:42;;;;;;;;;;;;;;;;;;4985294;28;19921;-64
2023/05/01 14:45:08;;;;;;;;;;;;;;;;;;4978834;28;19922;-65
2023/05/01 14:47:34;;;;;;;;;;;;;;;;;;4967423;28;19929;-64
2023/05/01 14:50:00;;;;;;;;;;;;;;;;;;4968007;28;19968;-63
2023/05/01 14:52:26;;;;;;;;;;;;;;;;;;4968358;28;19969;-66
2023/05/01 14:54:52;;;;;;;;;;;;;;;;;;4967293;28;19922;-64
2023/05/01 14:57:18;;;;;;;;;;;;;;;;;;4972673;28;19922;-64
2023/05/01 14:59:45;;;;;;;;;;;;;;;;;;4968473;28;19922;-64
2023/05/01 15:02:11;;;;;;;;;;;;;;;;;;4949817;28;20153;-64
2023/05/01 15:04:37;;;;;;;;;;;;;;;;;;4969853;28;20332;-64
2023/05/01 15:07:03;;;;;;;;;;;;;;;;;;4952638;28;19973;-63
2023/05/01 15:09:29;;;;;;;;;;;;;;;;;;4986972;28;19921;-64
2023/05/01 15:11:55;;;;;;;;;;;;;;;;;;4984701;28;19980;-64
2023/05/01 15:14:21;;;;;;;;;;;;;;;;;;4986421;28;19936;-64
2023/05/01 15:16:47;;;;;;;;;;;;;;;;;;4985454;28;19992;-63
2023/05/01 15:19:13;;;;;;;;;;;;;;;;;;4986212;28;19929;-63
2023/05/01 15:21:39;;;;;;;;;;;;;;;;;;4965486;28;19922;-63
2023/05/01 15:24:05;;;;;;;;;;;;;;;;;;4983848;28;19922;-63
2023/05/01 15:26:31;;;;;;;;;;;;;;;;;;4985541;28;19925;-63
2023/05/01 15:28:57;;;;;;;;;;;;;;;;;;4986249;28;19922;-63
2023/05/01 15:31:23;;;;;;;;;;;;;;;;;;4985040;28;19931;-62
2023/05/01 15:33:49;;;;;;;;;;;;;;;;;;4978011;28;19922;-63
2023/05/01 15:36:15;;;;;;;;;;;;;;;;;;4968160;28;19968;-62
2023/05/01 15:38:42;;;;;;;;;;;;;;;;;;4966232;28;19922;-62
2023/05/01 15:41:08;;;;;;;;;;;;;;;;;;4965418;28;19929;-62
2023/05/01 15:43:34;;;;;;;;;;;;;;;;;;4966583;28;19922;-62
2023/05/01 15:46:00;;;;;;;;;;;;;;;;;;4966298;28;20371;-62
2023/05/01 15:48:26;;;;;;;;;;;;;;;;;;4966426;28;19922;-62
2023/05/01 15:50:52;;;;;;;;;;;;;;;;;;4965269;28;19926;-62
2023/05/01 15:53:20;;;;;;;;;;;;;;;;;;4966172;28;19929;-62
2023/05/01 15:55:46;;;;;;;;;;;;;;;;;;4965107;28;19922;-63
2023/05/01 15:58:12;;;;;;;;;;;;;;;;;;4965863;28;19928;-63
2023/05/01 16:00:38;;;;;;;;;;;;;;;;;;4965809;28;19922;-63
2023/05/01 16:03:04;;;;;;;;;;;;;;;;;;4965807;28;19961;-63
2023/05/01 16:05:30;;;;;;;;;;;;;;;;;;4970927;28;19948;-63
2023/05/01 16:07:56;;;;;;;;;;;;;;;;;;4985240;28;19922;-63
2023/05/01 16:10:24;;;;;;;;;;;;;;;;;;4984569;28;19921;-63
2023/05/01 16:12:50;;;;;;;;;;;;;;;;;;4984513;28;20391;-63
2023/05/01 16:15:16;;;;;;;;;;;;;;;;;;4984993;28;19921;-63
2023/05/01 16:17:42;;;;;;;;;;;;;;;;;;4984369;28;20276;-63
2023/05/01 16:20:08;;;;;;;;;;;;;;;;;;4985202;28;19922;-63
2023/05/01 16:22:34;;;;;;;;;;;;;;;;;;4984837;28;19957;-63
2023/05/01 16:25:01;;;;;;;;;;;;;;;;;;4984516;28;19977;-62
2023/05/01 16:27:27;;;;;;;;;;;;;;;;;;4975921;28;20434;-62
2023/05/01 16:29:53;;;;;;;;;;;;;;;;;;4965034;28;19961;-63
2023/05/01 16:32:19;;;;;;;;;;;;;;;;;;4964842;28;19922;-62
2023/05/01 16:34:45;;;;;;;;;;;;;;;;;;4974743;28;20333;-63
2023/05/01 16:37:11;;;;;;;;;;;;;;;;;;4965556;28;19925;-62